Aeroporto :
LOGIN :

Iscrizione | Disclaimer

   EN    FR    IT 

 










Sommario :    VFR   VFR Marginale   IFR   IFR Intensivo   IFR Molto Intensivo
Visibilità : 
Base nubi : 
>= 8 km
>= 3000ft
5 / 8 km
1000 / 3000 ft
1500m / 5 km
500 / 1000 ft
800 / 1500m
200 / 500 ft
< 800m
< 200 ft
Simboli :   Temporali  Nebbia  Neve Forte  Precipitazioni Forti  Vento > 20 kt
SIGMETs :   Varie  Temporali  Ghiacco  Turbolenza  Onda orograficha  Ceneri Vulcaniche







- Altitudine del aeroporto : 24 ft
- Codice IATA : SGD


EKSB - Sonderborg

ULTIMO METAR :
  • 210620Z 24008KT 6000 BKN035 07/06 Q1018

METARs OBSOLETI :
  • 210550Z 24007KT 200V260 6000 BKN034 07/05 Q1018
  • 210520Z AUTO 24008KT 9999NDV BKN029/// BKN130/// 07/05 Q1018
  • 210450Z AUTO 24007KT 200V270 9999NDV FEW009/// BKN100/// 07/05 Q1018
  • 210420Z AUTO 24006KT 190V280 9999NDV BKN071/// BKN089/// 07/05 Q1018
  • 210350Z AUTO 23008KT 200V260 9000NDV BKN076/// 07/05 Q1018
  • 210320Z AUTO 24009KT 190V260 9000NDV SCT038/// BKN050/// BKN094/// 07/05 Q1018

TAF TAF EKSB
Valido dal 21 a 06 ore il 21 a 15 ore UTC


210551Z 2106/2115 24010KT 5000 BKN015
BECMG 2106/2108 2000 -RADZ BR BKN008
TEMPO 2108/2115 1200 BR BKN002
Nessun NOTAM noto per questo aeroporto.



MetMap, La meteo Aeronautica in un colpo d'occhio ! - Copyright ORBIFLY Dicembre 2007 - Disclaimer

ORBIFLY MET'MAP TEAM :

Programmazione e sviluppo : Alexandra Zaïnal
Concezione e sviluppo : Baudouin d'Aumeries
Co-Programmazione e sviluppo : Marc-Olivier Méhu
Supporto tecnico e logistico : Manuel Goepfert
Aiuto per la traduzione : Arnaldo La Scala

Contatto : metmap@orbifly.com




FONTI E CREDITI :

   NOAA